Time;durP1;ratioP1;P1;durP2;ratioP2;P2;SDS_P1;SDS_P2;PMS_P1;PMS_P2;Temp;Humidity;BMP_temperature;BMP_pressure;BME280_temperature;BME280_humidity;BME280_pressure;Samples;Min_cycle;Max_cycle;Signal;HPM_P1;HPM_P2
2021/10/03 00:00:15;;;;;;;11.32;6.07;;;14.10;99.90;;;12.92;95.68;100435.13;5003343;28;20099;-75
2021/10/03 00:02:46;;;;;;;11.43;6.20;;;14.10;99.90;;;13.02;95.32;100438.03;4999688;28;20082;-74
2021/10/03 00:05:14;;;;;;;11.55;6.53;;;14.20;99.90;;;12.96;95.71;100431.34;5017748;28;20511;-74
2021/10/03 00:07:57;;;;;;;16.88;6.47;;;14.20;99.90;;;13.04;95.18;100426.44;5033398;28;20491;-74
2021/10/03 00:10:28;;;;;;;17.65;6.22;;;14.20;99.90;;;13.02;95.27;100416.91;5028478;28;20116;-74
2021/10/03 00:12:55;;;;;;;11.60;6.18;;;14.20;99.90;;;13.02;95.60;100406.31;5023595;28;20091;-74
2021/10/03 00:15:23;;;;;;;11.80;6.22;;;14.20;99.90;;;13.03;95.36;100408.88;5025297;28;20397;-74
2021/10/03 00:17:49;;;;;;;13.65;6.18;;;14.20;99.90;;;12.99;95.57;100398.59;5023261;28;20576;-74
2021/10/03 00:20:17;;;;;;;10.98;6.45;;;14.20;99.90;;;13.00;95.55;100397.66;5008863;28;20481;-74
2021/10/03 00:22:43;;;;;;;16.25;6.85;;;14.20;99.90;;;13.10;95.15;100404.06;5023998;28;20029;-74
2021/10/03 00:25:13;;;;;;;13.15;6.90;;;14.30;99.90;;;13.08;94.90;100398.03;5014805;28;20055;-74
2021/10/03 00:27:41;;;;;;;15.30;7.13;;;14.30;99.90;;;13.11;94.55;100388.13;5024249;28;20087;-74
2021/10/03 00:30:09;;;;;;;13.93;5.97;;;14.30;99.90;;;13.14;94.61;100382.63;5012773;28;20040;-75
2021/10/03 00:32:36;;;;;;;15.75;7.22;;;14.40;99.90;;;13.17;94.39;100376.28;5031066;28;20509;-74
2021/10/03 00:35:02;;;;;;;12.15;6.65;;;14.40;99.90;;;13.21;94.42;100377.81;5036626;28;20041;-74
2021/10/03 00:37:28;;;;;;;16.60;7.00;;;14.40;99.90;;;13.22;94.15;100374.22;5034494;28;20076;-74
2021/10/03 00:39:54;;;;;;;14.02;7.25;;;14.50;99.90;;;13.26;93.83;100375.72;5023166;28;20033;-75
2021/10/03 00:42:21;;;;;;;13.40;7.22;;;14.50;99.90;;;13.32;93.56;100372.69;5034870;28;20082;-74
2021/10/03 00:44:47;;;;;;;15.15;7.50;;;14.50;99.90;;;13.33;93.41;100368.28;5032189;28;20500;-74
2021/10/03 00:47:13;;;;;;;13.77;7.13;;;14.50;99.90;;;13.27;93.65;100366.84;5015411;28;20043;-74
2021/10/03 00:49:39;;;;;;;13.63;7.18;;;14.50;99.90;;;13.27;93.88;100366.84;5034006;28;20539;-74
2021/10/03 00:52:07;;;;;;;15.38;7.35;;;14.50;99.90;;;13.29;93.91;100354.41;5024080;28;20033;-74
2021/10/03 00:54:35;;;;;;;14.38;7.32;;;14.50;99.90;;;13.28;93.90;100354.47;5025740;28;20112;-74
2021/10/03 00:57:01;;;;;;;15.73;7.53;;;14.40;99.90;;;13.22;94.39;100347.78;5014309;28;20039;-74
2021/10/03 00:59:28;;;;;;;11.70;7.00;;;14.40;99.90;;;13.26;94.31;100351.94;5039792;28;20045;-74
2021/10/03 01:01:55;;;;;;;12.52;7.13;;;14.50;99.90;;;13.29;93.89;100353.56;5025335;28;20032;-74
2021/10/03 01:04:21;;;;;;;14.00;7.47;;;14.50;99.90;;;13.29;93.73;100346.47;5020708;28;20045;-74
2021/10/03 01:06:47;;;;;;;15.27;7.70;;;14.50;99.90;;;13.36;93.63;100344.28;5025112;28;20548;-74
2021/10/03 01:09:14;;;;;;;19.02;7.72;;;14.60;99.90;;;13.41;93.51;100346.63;5032349;28;20032;-74
2021/10/03 01:11:41;;;;;;;14.23;8.00;;;14.60;99.90;;;13.38;93.05;100304.53;5025204;28;20059;-74
2021/10/03 01:14:07;;;;;;;14.23;7.82;;;14.60;99.90;;;13.43;92.94;100334.16;5013233;28;20447;-74
2021/10/03 01:16:33;;;;;;;13.93;7.95;;;14.60;99.90;;;13.48;92.55;100332.06;5033025;28;20183;-74
2021/10/03 01:18:59;;;;;;;19.92;8.23;;;14.70;99.90;;;13.53;92.26;100324.69;5037933;28;20045;-74
2021/10/03 01:21:26;;;;;;;13.90;8.07;;;14.70;99.90;;;13.52;92.56;100323.84;5033093;28;20481;-74
2021/10/03 01:23:56;;;;;;;13.55;7.68;;;14.80;99.90;;;13.54;91.92;100332.53;5054812;28;20064;-74
2021/10/03 01:26:23;;;;;;;12.45;7.82;;;14.70;99.90;;;13.48;92.45;100348.78;5007458;28;20017;-74
2021/10/03 01:28:53;;;;;;;13.07;7.60;;;14.70;99.90;;;13.51;92.17;100342.44;5004668;28;20440;-74
2021/10/03 01:31:27;;;;;;;13.65;7.20;;;14.70;99.90;;;13.48;92.51;100340.00;5027302;28;20072;-74
2021/10/03 01:33:53;;;;;;;17.15;8.35;;;14.70;99.90;;;13.49;92.58;100350.47;5031877;28;20060;-74
2021/10/03 01:36:21;;;;;;;14.38;8.32;;;14.70;99.90;;;13.52;92.37;100328.28;5026015;28;20476;-74
2021/10/03 01:38:48;;;;;;;15.65;8.40;;;14.80;99.90;;;13.53;92.38;100341.38;5028976;28;20048;-74
2021/10/03 01:41:14;;;;;;;12.27;7.32;;;14.80;99.90;;;13.56;91.97;100329.75;5023697;28;20087;-74
2021/10/03 01:43:40;;;;;;;11.50;7.75;;;14.80;99.90;;;13.67;91.17;100327.28;5022234;28;20033;-75
2021/10/03 01:46:06;;;;;;;13.57;8.48;;;14.90;99.90;;;13.74;90.48;100323.28;5032106;28;21188;-75
2021/10/03 01:48:33;;;;;;;18.00;9.05;;;14.90;99.90;;;13.70;90.78;100316.47;5014438;28;20029;-74
2021/10/03 01:51:08;;;;;;;17.00;9.05;;;14.90;99.90;;;13.70;90.62;100315.63;5023087;28;20033;-74
2021/10/03 01:53:51;;;;;;;18.38;8.82;;;14.90;99.90;;;13.79;90.34;100317.66;5023299;28;20381;-74
2021/10/03 01:56:19;;;;;;;19.25;9.07;;;14.90;99.90;;;13.73;90.59;100310.97;5033308;28;20067;-74
2021/10/03 01:58:50;;;;;;;15.85;9.52;;;14.90;99.90;;;13.73;90.41;100300.38;5021756;28;20395;-74
2021/10/03 02:01:25;;;;;;;19.67;8.68;;;15.00;99.90;;;13.87;89.50;100298.66;5015082;28;20045;-75
2021/10/03 02:03:51;;;;;;;18.58;9.20;;;15.00;99.90;;;13.95;88.68;100294.53;5024118;28;20029;-75
2021/10/03 02:06:19;;;;;;;17.45;8.73;;;15.10;99.90;;;13.92;88.51;100281.47;5028612;28;20033;-74
2021/10/03 02:08:54;;;;;;;15.35;9.07;;;15.10;99.90;;;13.90;88.77;100285.19;5029599;28;20033;-74
2021/10/03 02:11:21;;;;;;;16.38;8.68;;;15.00;99.90;;;13.88;88.76;100284.44;5029433;28;20029;-75
2021/10/03 02:13:48;;;;;;;16.67;9.10;;;15.10;99.90;;;13.91;88.57;100293.03;5023220;28;20025;-74
2021/10/03 02:16:15;;;;;;;17.25;9.27;;;15.10;99.90;;;13.89;88.57;100287.00;5028952;28;20509;-74
2021/10/03 02:18:41;;;;;;;28.00;11.77;;;15.10;99.90;;;13.88;88.63;100287.09;5018905;28;20037;-74
2021/10/03 02:21:09;;;;;;;15.98;9.65;;;15.10;99.90;;;13.85;88.44;100282.03;5023251;28;20507;-74
2021/10/03 02:23:36;;;;;;;15.35;8.63;;;15.00;99.90;;;13.84;88.62;100277.66;5020644;28;20044;-74
2021/10/03 02:26:04;;;;;;;17.83;10.00;;;15.00;99.90;;;13.85;88.84;100271.44;5011909;28;20067;-74
2021/10/03 02:28:31;;;;;;;16.17;9.13;;;15.00;99.90;;;13.80;88.68;100266.47;5021682;28;20117;-74
2021/10/03 02:31:02;;;;;;;18.20;9.85;;;15.00;99.90;;;13.95;87.99;100272.47;5037034;28;20024;-74
2021/10/03 02:33:28;;;;;;;25.88;9.93;;;15.10;99.90;;;13.86;88.27;100249.28;5022036;28;21533;-75
2021/10/03 02:35:56;;;;;;;17.08;9.95;;;15.00;99.90;;;13.83;88.18;100246.88;5031378;28;20021;-75
2021/10/03 02:38:25;;;;;;;20.48;10.00;;;15.00;99.90;;;13.82;88.26;100235.44;5031305;28;20033;-74
2021/10/03 02:40:54;;;;;;;19.33;10.40;;;15.00;99.90;;;13.73;88.61;100236.88;5029004;28;20037;-74
2021/10/03 02:43:21;;;;;;;19.63;9.43;;;15.00;99.90;;;13.74;88.32;100233.31;5048159;28;20026;-74
2021/10/03 02:45:52;;;;;;;16.92;9.80;;;15.00;99.90;;;13.73;88.62;100233.41;5020725;28;20021;-74
2021/10/03 02:48:22;;;;;;;19.50;9.75;;;14.90;99.90;;;13.75;88.04;100232.34;5022844;28;20025;-74
2021/10/03 02:50:51;;;;;;;16.08;9.60;;;14.90;99.90;;;13.75;88.01;100231.50;5021749;28;20074;-74
2021/10/03 02:53:20;;;;;;;17.75;10.38;;;14.90;99.90;;;13.71;88.01;100222.94;5023349;28;20022;-74
2021/10/03 02:55:46;;;;;;;19.23;11.48;;;14.90;99.90;;;13.68;88.26;100222.28;5002621;28;20503;-74
2021/10/03 02:58:12;;;;;;;18.83;10.68;;;14.90;99.90;;;13.63;88.45;100219.97;5013922;28;20164;-74
2021/10/03 03:00:41;;;;;;;17.42;10.38;;;14.90;99.90;;;13.71;87.63;100222.94;5011567;28;20063;-74
2021/10/03 03:03:07;;;;;;;17.77;10.00;;;14.80;99.90;;;13.64;88.28;100219.00;5023522;28;20037;-74
2021/10/03 03:05:34;;;;;;;14.88;9.70;;;14.80;99.90;;;13.61;88.18;100207.78;5012683;28;20400;-74
2021/10/03 03:08:01;;;;;;;18.83;9.85;;;14.80;99.90;;;13.66;87.52;100209.16;5021114;28;20037;-74
2021/10/03 03:10:29;;;;;;;17.50;10.45;;;14.80;99.90;;;13.60;87.97;100206.94;5022327;28;20053;-74
2021/10/03 03:12:55;;;;;;;16.48;10.25;;;14.80;99.90;;;13.62;87.98;100230.63;5012499;28;20029;-74
2021/10/03 03:15:21;;;;;;;18.05;10.13;;;14.70;99.90;;;13.56;88.04;100216.00;5023194;28;20021;-74
2021/10/03 03:17:47;;;;;;;20.20;10.65;;;14.80;99.90;;;13.56;87.80;100213.38;5019602;28;20037;-74
2021/10/03 03:20:14;;;;;;;18.67;10.45;;;14.70;99.90;;;13.55;87.90;100216.97;5021849;28;20090;-75
2021/10/03 03:22:40;;;;;;;18.10;9.88;;;14.70;99.90;;;13.57;87.54;100204.50;5011039;28;20052;-74
2021/10/03 03:25:10;;;;;;;16.95;10.00;;;14.80;99.90;;;13.65;86.34;100207.47;5012169;28;20022;-74
2021/10/03 03:27:36;;;;;;;18.70;9.85;;;14.80;99.90;;;13.67;86.55;100210.88;5028080;28;20476;-74
2021/10/03 03:30:05;;;;;;;22.33;10.32;;;14.90;99.90;;;13.72;85.42;100202.63;5019128;28;20041;-74
2021/10/03 03:32:32;;;;;;;16.95;9.70;;;14.80;99.90;;;13.66;85.62;100197.75;5021310;28;20125;-74
2021/10/03 03:34:58;;;;;;;15.48;9.68;;;14.80;99.90;;;13.65;85.24;100191.59;5023708;28;20033;-74
2021/10/03 03:37:25;;;;;;;16.50;9.13;;;14.80;99.90;;;13.70;85.13;100186.00;5021697;28;20041;-74
2021/10/03 03:39:51;;;;;;;16.00;9.27;;;14.80;99.90;;;13.70;84.68;100183.34;5016598;28;20252;-75
2021/10/03 03:42:17;;;;;;;18.45;10.25;;;14.90;99.90;;;13.70;84.60;100170.13;5021699;28;20381;-75
2021/10/03 03:44:43;;;;;;;17.58;9.10;;;14.90;99.90;;;13.66;84.53;100172.13;5004612;28;20400;-74
2021/10/03 03:47:09;;;;;;;23.73;10.00;;;14.90;99.90;;;13.70;84.35;100167.47;5029297;28;20035;-75
2021/10/03 03:49:35;;;;;;;16.42;9.20;;;14.80;99.90;;;13.67;84.25;100163.25;5021800;28;20030;-74
2021/10/03 03:52:02;;;;;;;16.80;9.32;;;14.90;99.90;;;13.70;83.21;100160.38;5028760;28;20039;-74
2021/10/03 03:54:28;;;;;;;19.55;9.98;;;14.90;99.90;;;13.74;82.94;100156.56;5021658;28;20170;-75
2021/10/03 03:56:54;;;;;;;13.93;8.80;;;14.90;99.90;;;13.70;82.92;100152.44;5028797;28;20117;-74
2021/10/03 03:59:20;;;;;;;16.27;9.00;;;14.90;99.90;;;13.66;82.50;100156.25;5013377;28;20051;-74
2021/10/03 04:01:46;;;;;;;18.02;9.50;;;14.90;99.90;;;13.65;82.77;100162.50;5027810;28;20033;-75
2021/10/03 04:04:12;;;;;;;17.15;9.20;;;14.80;99.90;;;13.68;82.48;100177.31;5029644;28;20036;-74
2021/10/03 04:06:38;;;;;;;13.93;8.80;;;14.90;99.90;;;13.73;81.80;100162.81;5011231;28;20033;-75
2021/10/03 04:09:06;;;;;;;15.60;9.05;;;14.90;99.90;;;13.69;81.60;100153.41;5010802;28;20025;-74
2021/10/03 04:11:32;;;;;;;17.42;9.43;;;14.90;99.90;;;13.68;81.39;100140.28;5037717;28;20025;-74
2021/10/03 04:13:58;;;;;;;13.98;8.48;;;14.90;99.90;;;13.71;81.18;100142.69;5022687;28;20182;-74
2021/10/03 04:16:24;;;;;;;15.43;7.82;;;14.90;99.90;;;13.68;81.38;100141.13;5020994;28;20478;-75
2021/10/03 04:18:50;;;;;;;13.25;7.68;;;14.80;99.90;;;13.66;81.22;100135.09;5028699;28;20075;-74
2021/10/03 04:21:16;;;;;;;17.75;7.90;;;14.80;99.90;;;13.61;81.38;100139.84;5021133;28;20477;-74
2021/10/03 04:23:42;;;;;;;22.67;8.88;;;14.80;99.90;;;13.59;81.42;100140.91;5021586;28;20035;-74
2021/10/03 04:26:09;;;;;;;14.90;8.15;;;14.80;99.90;;;13.61;80.59;100133.72;5010135;28;20025;-74
2021/10/03 04:28:35;;;;;;;16.00;7.95;;;14.80;99.90;;;13.58;81.33;100134.75;5029612;28;20094;-74
2021/10/03 04:31:01;;;;;;;15.68;9.15;;;14.70;99.90;;;13.56;80.91;100127.88;5017806;28;20040;-74
2021/10/03 04:33:27;;;;;;;14.82;8.90;;;14.70;99.90;;;13.49;81.34;100124.81;5012657;28;20040;-74
2021/10/03 04:35:53;;;;;;;14.82;8.60;;;14.70;99.90;;;13.46;81.53;100125.03;5011726;28;20033;-74
2021/10/03 04:38:19;;;;;;;12.38;7.78;;;14.60;99.90;;;13.40;81.29;100118.34;5019573;28;20059;-75
2021/10/03 04:40:45;;;;;;;15.80;8.23;;;14.70;99.90;;;13.52;80.70;100132.56;5021114;28;20087;-74
2021/10/03 04:43:11;;;;;;;14.75;8.00;;;14.70;99.90;;;13.44;80.81;100126.94;5018872;28;20021;-74
2021/10/03 04:45:37;;;;;;;11.35;7.38;;;14.70;99.90;;;13.45;80.41;100128.63;5013683;28;20385;-74
2021/10/03 04:48:04;;;;;;;15.27;8.20;;;14.60;99.90;;;13.46;81.05;100127.69;5020104;28;20388;-74
2021/10/03 04:50:30;;;;;;;13.38;7.93;;;14.60;99.90;;;13.43;80.33;100117.28;5034629;28;20039;-74
2021/10/03 04:52:56;;;;;;;18.58;7.32;;;14.60;99.90;;;13.43;80.36;100112.84;5020692;28;20060;-74
2021/10/03 04:55:22;;;;;;;15.98;7.25;;;14.60;99.90;;;13.45;79.63;100110.09;5020544;28;20021;-74
2021/10/03 04:57:49;;;;;;;15.65;7.45;;;14.60;99.90;;;13.47;79.32;100108.22;5020075;28;20358;-74
2021/10/03 05:00:15;;;;;;;13.20;7.85;;;14.70;99.90;;;13.50;79.09;100108.84;5015069;28;20117;-74
2021/10/03 05:02:41;;;;;;;17.27;7.75;;;14.70;99.90;;;13.47;79.34;100098.47;5016254;28;20106;-74
2021/10/03 05:05:08;;;;;;;14.82;7.88;;;14.60;99.90;;;13.41;79.39;100098.03;5023285;28;20477;-74
2021/10/03 05:07:34;;;;;;;16.83;7.60;;;14.70;99.90;;;13.47;79.00;100109.03;5014436;28;20342;-75
2021/10/03 05:10:00;;;;;;;17.92;7.63;;;14.60;99.90;;;13.38;79.78;100109.69;5024414;28;20185;-74
2021/10/03 05:12:27;;;;;;;13.35;7.40;;;14.60;99.90;;;13.38;79.49;100103.56;5030313;28;20021;-74
2021/10/03 05:14:53;;;;;;;12.77;7.13;;;14.60;99.90;;;13.38;79.64;100106.19;5031542;28;20079;-74
2021/10/03 05:17:19;;;;;;;16.42;7.63;;;14.60;99.90;;;13.38;79.44;100098.25;5022115;28;20017;-74
2021/10/03 05:19:46;;;;;;;12.05;6.82;;;14.60;99.90;;;13.41;79.48;100111.25;5033285;28;20040;-74
2021/10/03 05:22:12;;;;;;;12.55;7.13;;;14.60;99.90;;;13.36;79.69;100106.28;5022945;28;20037;-74
2021/10/03 05:24:38;;;;;;;12.60;7.43;;;14.50;99.90;;;13.34;79.72;100113.47;5031400;28;20477;-74
2021/10/03 05:27:04;;;;;;;13.60;6.75;;;14.60;99.90;;;13.40;79.06;100106.94;5024683;28;20037;-74
2021/10/03 05:29:30;;;;;;;11.90;7.03;;;14.60;99.90;;;13.40;78.49;100102.50;5023175;28;20467;-74
2021/10/03 05:31:56;;;;;;;11.85;7.10;;;14.60;99.90;;;13.45;78.58;100102.19;5023655;28;20051;-74
2021/10/03 05:34:22;;;;;;;11.38;7.25;;;14.60;99.90;;;13.44;78.07;100098.69;5015017;28;20505;-74
2021/10/03 05:36:48;;;;;;;11.70;7.18;;;14.60;99.90;;;13.42;78.81;100097.09;5025074;28;21545;-74
2021/10/03 05:39:14;;;;;;;16.75;6.97;;;14.60;99.90;;;13.39;78.95;100102.59;5021042;28;20112;-74
2021/10/03 05:41:40;;;;;;;22.30;7.50;;;14.60;99.90;;;13.40;79.01;100101.66;5013142;28;20060;-74
2021/10/03 05:44:06;;;;;;;12.10;7.05;;;14.60;99.90;;;13.43;78.57;100101.44;5040608;28;20032;-74
2021/10/03 05:46:32;;;;;;;11.77;6.82;;;14.60;99.90;;;13.40;78.62;100091.06;5014095;28;20033;-74
2021/10/03 05:48:58;;;;;;;12.13;6.85;;;14.00;99.90;;;13.42;78.68;100095.31;5029992;28;20025;-75
2021/10/03 05:51:25;;;;;;;13.80;7.80;;;14.60;99.90;;;13.50;78.81;100097.44;5024627;28;20026;-74
2021/10/03 05:53:51;;;;;;;13.85;7.50;;;14.70;99.90;;;13.50;78.77;100087.69;5015159;28;20017;-74
2021/10/03 05:56:17;;;;;;;14.48;7.10;;;14.70;99.90;;;13.54;77.89;100088.31;5033540;28;20078;-74
2021/10/03 05:58:43;;;;;;;14.70;6.65;;;14.80;99.90;;;13.55;77.99;100090.03;5039384;28;20051;-74
2021/10/03 06:01:09;;;;;;;13.82;7.72;;;14.80;99.90;;;13.59;77.61;100107.38;5021878;28;20367;-74
2021/10/03 06:03:35;;;;;;;14.43;7.68;;;14.80;99.90;;;13.62;77.59;100098.38;5030928;28;20041;-74
2021/10/03 06:06:01;;;;;;;15.88;6.97;;;14.80;99.90;;;13.72;76.96;100104.72;5012877;28;20116;-74
2021/10/03 06:08:27;;;;;;;19.25;6.88;;;14.80;99.90;;;13.70;77.37;100103.97;5015471;28;20400;-74
2021/10/03 06:10:53;;;;;;;11.65;6.70;;;14.90;99.90;;;13.77;77.37;100107.06;5037875;28;20112;-74
2021/10/03 06:13:19;;;;;;;15.95;7.03;;;14.90;99.90;;;13.73;77.57;100101.94;5021653;28;20029;-74
2021/10/03 06:15:45;;;;;;;15.07;6.75;;;14.90;99.90;;;13.71;77.58;100111.81;5024836;28;20083;-74
2021/10/03 06:18:14;;;;;;;13.02;6.78;;;14.90;99.90;;;13.72;78.42;100117.94;5020371;28;20091;-74
2021/10/03 06:20:42;;;;;;;10.32;6.40;;;14.90;99.90;;;13.61;79.67;100144.31;5004179;28;20036;-74
2021/10/03 06:23:09;;;;;;;14.52;7.72;;;14.90;99.90;;;13.62;79.90;100138.88;5030887;28;20096;-74
2021/10/03 06:25:35;;;;;;;17.30;6.80;;;14.80;99.90;;;13.56;79.83;100134.00;5029316;28;20331;-74
2021/10/03 06:28:01;;;;;;;13.20;7.22;;;14.80;99.90;;;13.53;81.13;100143.00;5042691;28;20504;-74
2021/10/03 06:30:28;;;;;;;13.88;6.95;;;14.80;99.90;;;13.58;80.94;100137.41;5027281;28;20063;-74
2021/10/03 06:32:54;;;;;;;11.77;6.95;;;14.90;99.90;;;13.65;80.27;100121.97;5026680;28;20080;-74
2021/10/03 06:35:22;;;;;;;14.23;6.70;;;14.90;99.90;;;13.67;79.46;100125.34;5013240;28;20267;-75
2021/10/03 06:37:48;;;;;;;13.68;7.25;;;14.90;99.90;;;13.65;79.03;100114.88;5030880;28;20025;-74
2021/10/03 06:40:14;;;;;;;10.93;6.72;;;14.80;99.90;;;13.69;79.06;100123.44;5037243;28;20127;-75
2021/10/03 06:42:40;;;;;;;11.38;7.32;;;14.90;99.90;;;13.71;79.09;100125.06;5021488;28;20045;-74
2021/10/03 06:45:07;;;;;;;11.27;6.80;;;14.90;99.90;;;13.70;78.75;100111.91;5008557;28;20027;-74
2021/10/03 06:47:33;;;;;;;12.23;7.35;;;14.80;99.90;;;13.68;79.14;100113.81;5026451;28;20491;-74
2021/10/03 06:49:59;;;;;;;15.35;7.10;;;14.80;99.90;;;13.67;78.57;100099.75;5045047;28;20152;-75
2021/10/03 06:52:25;;;;;;;12.13;7.13;;;14.90;99.90;;;13.67;78.91;100109.47;5014482;28;20078;-75
2021/10/03 06:54:52;;;;;;;13.80;7.55;;;14.90;99.90;;;13.67;78.96;100102.41;5027860;28;20029;-75
2021/10/03 06:57:18;;;;;;;10.48;6.90;;;14.90;99.90;;;13.68;79.72;100127.88;5038011;28;20135;-74
2021/10/03 06:59:44;;;;;;;12.10;6.80;;;14.90;99.90;;;13.68;79.41;100122.59;5019862;28;20068;-74
2021/10/03 07:02:26;;;;;;;13.00;6.93;;;14.90;99.90;;;13.72;79.86;100136.47;5031456;28;20040;-74
2021/10/03 07:04:55;;;;;;;13.20;7.28;;;14.90;99.90;;;13.75;78.95;100123.84;5012518;28;20032;-74
2021/10/03 07:07:22;;;;;;;19.52;8.13;;;14.90;99.90;;;13.78;79.12;100127.25;5022521;28;20032;-74
2021/10/03 07:09:50;;;;;;;18.13;7.90;;;15.00;99.90;;;13.85;79.59;100125.88;5043088;28;20033;-74
2021/10/03 07:12:16;;;;;;;14.18;7.60;;;15.00;99.90;;;13.90;79.36;100126.41;5023156;28;20477;-74
2021/10/03 07:14:43;;;;;;;14.02;7.10;;;15.10;99.90;;;14.04;78.78;100133.34;5012505;28;20465;-74
2021/10/03 07:17:11;;;;;;;13.95;7.95;;;15.10;99.90;;;14.03;78.62;100129.88;5012348;28;20029;-74
2021/10/03 07:19:38;;;;;;;11.43;7.65;;;15.20;99.90;;;14.04;78.15;100123.66;5035006;28;20434;-74
2021/10/03 07:22:07;;;;;;;14.93;7.25;;;15.20;99.90;;;14.12;77.92;100131.91;5007243;28;20040;-74
2021/10/03 07:24:34;;;;;;;11.18;7.25;;;15.20;99.90;;;14.18;78.12;100117.34;5031104;28;20057;-74
2021/10/03 07:27:01;;;;;;;13.20;7.50;;;15.30;99.90;;;14.19;77.17;100107.59;5020283;28;20043;-75
2021/10/03 07:29:27;;;;;;;13.95;7.40;;;15.30;99.90;;;14.26;77.37;100106.22;5044357;28;20096;-74
2021/10/03 07:31:53;;;;;;;11.68;6.95;;;15.30;99.90;;;14.19;77.70;100099.66;5022222;28;20029;-74
2021/10/03 07:34:19;;;;;;;14.15;7.22;;;15.30;99.90;;;14.26;77.30;100119.47;5020553;28;20022;-75
2021/10/03 07:36:45;;;;;;;12.88;7.03;;;15.30;99.90;;;14.23;78.09;100140.84;5004305;28;20030;-74
2021/10/03 07:39:13;;;;;;;16.88;7.55;;;15.30;99.90;;;14.19;78.49;100124.34;5019763;28;20127;-74
2021/10/03 07:41:39;;;;;;;18.45;7.57;;;15.30;99.90;;;14.13;78.40;100108.91;5027967;28;20025;-74
2021/10/03 07:44:05;;;;;;;12.90;7.90;;;15.30;99.90;;;14.11;78.33;100103.72;5021334;28;20083;-74
2021/10/03 07:46:31;;;;;;;15.95;7.93;;;15.20;99.90;;;14.14;78.18;100123.81;5019821;28;20025;-75
2021/10/03 07:48:57;;;;;;;13.75;7.78;;;15.30;99.90;;;14.10;78.41;100104.69;5019947;28;20040;-74
2021/10/03 07:51:23;;;;;;;11.82;7.03;;;15.30;99.90;;;14.11;78.37;100103.72;5044483;28;20040;-75
2021/10/03 07:53:49;;;;;;;11.38;7.20;;;15.30;99.90;;;14.13;78.00;100107.09;5032329;28;20017;-75
2021/10/03 07:56:15;;;;;;;13.93;7.57;;;15.40;99.90;;;14.23;78.14;100111.72;5023978;28;20032;-74
2021/10/03 07:58:42;;;;;;;15.52;7.75;;;15.40;99.90;;;14.33;77.55;100115.41;5021232;28;20049;-74
2021/10/03 08:01:09;;;;;;;12.43;6.93;;;15.50;99.90;;;14.40;77.62;100095.47;5029399;28;20151;-75
2021/10/03 08:03:37;;;;;;;15.02;8.05;;;15.60;99.90;;;14.44;77.61;100104.88;5011922;28;20028;-75
2021/10/03 08:06:04;;;;;;;12.98;7.53;;;15.60;99.90;;;14.55;76.93;100112.91;5020465;28;20034;-75
2021/10/03 08:08:30;;;;;;;14.80;7.78;;;15.70;99.90;;;14.69;77.37;100121.69;5017374;28;20041;-75
2021/10/03 08:10:56;;;;;;;12.38;7.97;;;15.80;99.90;;;14.83;77.09;100125.97;5021857;28;20032;-74
2021/10/03 08:13:22;;;;;;;13.35;7.00;;;15.90;99.90;;;14.94;76.36;100124.19;5045341;28;20048;-75
2021/10/03 08:15:48;;;;;;;12.35;7.28;;;16.00;99.90;;;14.98;76.02;100127.47;5019981;28;20482;-75
2021/10/03 08:18:14;;;;;;;14.65;7.25;;;16.10;99.90;;;14.96;76.38;100122.28;5019615;28;20388;-75
2021/10/03 08:20:41;;;;;;;12.52;7.80;;;16.10;99.90;;;15.05;77.17;100135.81;5013192;28;20025;-74
2021/10/03 08:23:09;;;;;;;13.98;7.63;;;16.10;99.90;;;14.98;76.65;100128.31;5022270;28;21002;-74
2021/10/03 08:25:35;;;;;;;13.27;7.78;;;16.10;99.90;;;15.00;77.18;100122.91;5019300;28;20091;-75
2021/10/03 08:28:02;;;;;;;12.73;7.38;;;16.10;99.90;;;15.08;76.33;100122.34;5026601;28;20123;-74
2021/10/03 08:30:28;;;;;;;14.80;7.78;;;16.20;99.90;;;15.09;76.11;100108.09;5012741;28;20041;-75
2021/10/03 08:32:54;;;;;;;18.13;8.45;;;16.20;99.90;;;15.20;75.68;100112.59;5022645;28;20558;-74
2021/10/03 08:35:20;;;;;;;13.85;7.90;;;16.30;99.90;;;15.33;75.42;100108.91;5026266;28;20029;-75
2021/10/03 08:37:46;;;;;;;14.57;7.95;;;16.40;99.90;;;15.47;74.90;100109.66;5021109;28;20091;-75
2021/10/03 08:40:15;;;;;;;12.48;7.65;;;16.50;99.90;;;15.56;74.30;100111.59;5033627;28;20114;-75
2021/10/03 08:42:41;;;;;;;14.43;8.18;;;16.60;99.90;;;15.72;74.20;100113.94;5025472;28;20119;-75
2021/10/03 08:45:09;;;;;;;11.68;7.50;;;16.80;99.90;;;15.78;72.72;100161.25;5014765;28;20021;-74
2021/10/03 08:47:41;;;;;;;11.57;7.20;;;16.80;99.90;;;15.90;73.24;100156.81;5040204;28;20021;-75
2021/10/03 08:50:14;;;;;;;15.07;7.82;;;16.80;99.90;;;15.78;72.65;100140.00;5015467;28;20549;-75
2021/10/03 08:52:43;;;;;;;11.95;7.15;;;16.90;99.90;;;15.99;72.73;100161.38;5024004;28;20068;-75
2021/10/03 08:55:12;;;;;;;15.52;7.32;;;17.00;99.90;;;16.17;71.94;100180.34;5023928;28;20417;-74
2021/10/03 08:57:39;;;;;;;10.77;7.25;;;18.10;99.90;;;16.40;71.15;100187.31;5030038;28;20037;-74
2021/10/03 09:00:21;;;;;;;17.17;7.55;;;17.40;99.90;;;16.61;70.41;100205.19;5024400;28;20044;-74
2021/10/03 09:02:53;;;;;;;13.38;8.15;;;17.60;99.90;;;16.91;70.50;100220.53;5014822;28;20029;-75
2021/10/03 09:05:21;;;;;;;12.27;7.45;;;17.60;99.90;;;16.64;70.64;100190.81;5025390;28;20032;-75
2021/10/03 09:08:26;;;;;;;12.35;7.15;;;17.60;99.90;;;16.48;71.64;100197.34;5037501;28;20034;-75
2021/10/03 09:11:04;;;;;;;13.18;7.68;;;17.50;99.90;;;16.35;71.97;100191.34;5030504;28;20038;-75
2021/10/03 09:13:33;;;;;;;12.70;7.60;;;17.40;99.90;;;16.39;72.72;100198.06;5032692;28;20049;-75
2021/10/03 09:16:34;;;;;;;16.38;7.85;;;17.50;99.90;;;16.54;72.54;100196.88;5029909;28;20029;-75
2021/10/03 09:19:09;;;;;;;13.27;7.55;;;17.50;99.90;;;16.40;71.42;100174.03;5026396;28;20830;-75
2021/10/03 09:21:40;;;;;;;12.60;7.50;;;17.50;99.90;;;16.39;72.62;100158.22;5030983;28;20052;-75
2021/10/03 09:24:20;;;;;;;12.25;7.47;;;17.40;99.90;;;16.37;71.83;100157.50;5007475;28;20083;-75
2021/10/03 09:27:01;;;;;;;16.83;7.78;;;17.50;99.90;;;16.52;71.63;100166.91;5029957;28;20112;-75
2021/10/03 09:29:33;;;;;;;11.43;7.40;;;17.60;99.90;;;16.66;72.13;100175.59;5016807;28;20052;-75
2021/10/03 09:32:16;;;;;;;13.50;8.40;;;17.70;99.90;;;16.72;71.61;100172.44;5033974;28;20039;-75
2021/10/03 09:34:47;;;;;;;14.15;8.10;;;17.80;99.90;;;16.89;70.65;100179.91;5030355;28;20033;-75
2021/10/03 09:37:25;;;;;;;13.00;8.13;;;17.80;99.90;;;16.71;71.21;100165.41;5013631;28;20040;-75
2021/10/03 09:40:07;;;;;;;12.18;8.13;;;17.80;99.90;;;16.89;70.77;100174.59;5007237;28;20121;-75
2021/10/03 09:42:35;;;;;;;12.25;7.30;;;17.90;99.90;;;16.88;71.77;100167.56;5030320;28;20025;-75
2021/10/03 09:45:21;;;;;;;16.88;7.68;;;17.80;99.90;;;16.79;72.61;100169.13;5032381;28;20029;-75
2021/10/03 09:48:04;;;;;;;16.40;8.00;;;17.90;99.90;;;16.87;72.04;100149.94;5030535;28;20029;-75
2021/10/03 09:50:32;;;;;;;11.32;8.20;;;17.90;99.90;;;16.79;72.45;100147.88;5031473;28;20036;-75
2021/10/03 09:52:59;;;;;;;12.07;7.85;;;17.80;99.90;;;16.77;72.17;100131.19;5031274;28;20385;-75
2021/10/03 09:55:26;;;;;;;17.55;8.35;;;17.80;99.90;;;16.74;71.92;100133.28;5022645;28;20037;-75
2021/10/03 09:57:55;;;;;;;12.35;8.35;;;17.70;99.90;;;16.63;72.85;100118.22;5019564;28;20029;-75
2021/10/03 10:00:26;;;;;;;14.10;7.95;;;17.70;99.90;;;16.58;73.27;100120.38;5031473;28;20487;-75
2021/10/03 10:02:53;;;;;;;17.00;8.70;;;17.70;99.90;;;16.54;72.78;100117.16;5020431;28;20025;-74
2021/10/03 10:05:26;;;;;;;12.73;7.93;;;17.50;99.90;;;16.34;73.46;100109.94;5007953;28;20500;-75
2021/10/03 10:07:53;;;;;;;15.63;8.02;;;17.40;99.90;;;16.38;73.33;100111.38;5035951;28;20486;-75